KASH/ASH METAR and TAF weather

Enter ICAO airport designator
Station Type Date Time Source
KASH METAR 2021/09/25 10:56 UTC NOAA

KASH 251056Z 29004KT 10SM FEW055 13/13 A3007 RMK AO2 SLP187 T01280128


Station Type Date Time Source
KASH Decoded METAR 2021/09/25 10:56 UTC NOAA

Nashua, Boire Field Airport, NH, United States (KASH) 42-46-54N 071-30-53W
Sep 25, 2021 - 06:56 AM EDT / 2021.09.25 1056 UTC
Wind: from the WNW (290 degrees) at 5 MPH (4 KT):0
Visibility: 10 mile(s):0
Sky conditions: mostly clear
Temperature: 55.0 F (12.8 C)
Dew Point: 55.0 F (12.8 C)
Relative Humidity: 100%
Pressure (altimeter): 30.07 in. Hg (1018 hPa)
ob: KASH 251056Z 29004KT 10SM FEW055 13/13 A3007 RMK AO2 SLP187 T01280128
cycle: 11

Station Type Date Time Source
KASH TAF UTC NOAA

Error!

Example: see airport list